sensor_id;sensor_type;location;lat;lon;timestamp;pressure;altitude;pressure_sealevel;temperature;humidity
72677;BME280;60755;51.374;10.662;2023-05-02T00:00:30;97123.72;;;11.20;76.70
72677;BME280;60755;51.374;10.662;2023-05-02T00:02:59;97119.41;;;11.14;76.72
72677;BME280;60755;51.374;10.662;2023-05-02T00:05:28;97119.09;;;11.11;77.11
72677;BME280;60755;51.374;10.662;2023-05-02T00:07:55;97119.09;;;11.11;77.59
72677;BME280;60755;51.374;10.662;2023-05-02T00:10:22;97122.94;;;11.03;78.61
72677;BME280;60755;51.374;10.662;2023-05-02T00:12:49;97122.63;;;11.00;78.43
72677;BME280;60755;51.374;10.662;2023-05-02T00:15:16;97117.84;;;10.97;78.67
72677;BME280;60755;51.374;10.662;2023-05-02T00:17:43;97119.13;;;10.94;78.79
72677;BME280;60755;51.374;10.662;2023-05-02T00:20:12;97120.06;;;10.88;79.64
72677;BME280;60755;51.374;10.662;2023-05-02T00:22:41;97124.78;;;10.86;79.31
72677;BME280;60755;51.374;10.662;2023-05-02T00:25:09;97125.81;;;10.85;80.70
72677;BME280;60755;51.374;10.662;2023-05-02T00:27:40;97131.22;;;10.78;80.76
72677;BME280;60755;51.374;10.662;2023-05-02T00:30:08;97127.72;;;10.73;80.65
72677;BME280;60755;51.374;10.662;2023-05-02T00:32:35;97125.88;;;10.73;81.40
72677;BME280;60755;51.374;10.662;2023-05-02T00:35:03;97131.88;;;10.69;81.48
72677;BME280;60755;51.374;10.662;2023-05-02T00:37:32;97137.91;;;10.69;81.02
72677;BME280;60755;51.374;10.662;2023-05-02T00:39:59;97138.63;;;10.64;81.25
72677;BME280;60755;51.374;10.662;2023-05-02T00:42:26;97140.13;;;10.60;82.16
72677;BME280;60755;51.374;10.662;2023-05-02T00:44:56;97146.63;;;10.58;81.60
72677;BME280;60755;51.374;10.662;2023-05-02T00:47:23;97151.69;;;10.59;82.42
72677;BME280;60755;51.374;10.662;2023-05-02T00:49:50;97155.91;;;10.60;81.63
72677;BME280;60755;51.374;10.662;2023-05-02T00:52:17;97149.50;;;10.56;81.38
72677;BME280;60755;51.374;10.662;2023-05-02T00:54:46;97150.00;;;10.53;82.08
72677;BME280;60755;51.374;10.662;2023-05-02T00:57:13;97154.44;;;10.53;82.47
72677;BME280;60755;51.374;10.662;2023-05-02T00:59:40;97145.66;;;10.47;82.92
72677;BME280;60755;51.374;10.662;2023-05-02T01:02:18;97141.69;;;10.45;83.03
72677;BME280;60755;51.374;10.662;2023-05-02T01:04:55;97141.69;;;10.45;83.59
72677;BME280;60755;51.374;10.662;2023-05-02T01:07:34;97147.19;;;10.43;83.16
72677;BME280;60755;51.374;10.662;2023-05-02T01:10:16;97153.38;;;10.37;83.71
72677;BME280;60755;51.374;10.662;2023-05-02T01:12:53;97142.63;;;10.39;83.46
72677;BME280;60755;51.374;10.662;2023-05-02T01:15:24;97149.97;;;10.36;84.70
72677;BME280;60755;51.374;10.662;2023-05-02T01:17:53;97145.50;;;10.37;84.33
72677;BME280;60755;51.374;10.662;2023-05-02T01:20:23;97145.94;;;10.34;84.69
72677;BME280;60755;51.374;10.662;2023-05-02T01:22:53;97156.00;;;10.37;84.53
72677;BME280;60755;51.374;10.662;2023-05-02T01:25:30;97149.63;;;10.33;84.89
72677;BME280;60755;51.374;10.662;2023-05-02T01:28:06;97154.41;;;10.36;85.43
72677;BME280;60755;51.374;10.662;2023-05-02T01:30:40;97159.66;;;10.36;84.41
72677;BME280;60755;51.374;10.662;2023-05-02T01:33:10;97151.31;;;10.39;84.77
72677;BME280;60755;51.374;10.662;2023-05-02T01:35:37;97159.66;;;10.36;84.39
72677;BME280;60755;51.374;10.662;2023-05-02T01:38:06;97158.06;;;10.35;85.15
72677;BME280;60755;51.374;10.662;2023-05-02T01:40:33;97159.66;;;10.36;85.29
72677;BME280;60755;51.374;10.662;2023-05-02T01:43:03;97147.47;;;10.30;85.40
72677;BME280;60755;51.374;10.662;2023-05-02T01:45:33;97161.16;;;10.32;85.35
72677;BME280;60755;51.374;10.662;2023-05-02T01:48:05;97163.72;;;10.27;85.03
72677;BME280;60755;51.374;10.662;2023-05-02T01:50:33;97165.06;;;10.29;84.19
72677;BME280;60755;51.374;10.662;2023-05-02T01:53:02;97169.16;;;10.25;85.44
72677;BME280;60755;51.374;10.662;2023-05-02T01:55:30;97175.81;;;10.28;84.01
72677;BME280;60755;51.374;10.662;2023-05-02T01:58:00;97180.47;;;10.26;84.66
72677;BME280;60755;51.374;10.662;2023-05-02T02:00:28;97177.94;;;10.31;84.25
72677;BME280;60755;51.374;10.662;2023-05-02T02:02:57;97175.88;;;10.33;83.32
72677;BME280;60755;51.374;10.662;2023-05-02T02:05:26;97183.31;;;10.36;83.10
72677;BME280;60755;51.374;10.662;2023-05-02T02:07:54;97184.91;;;10.37;83.87
72677;BME280;60755;51.374;10.662;2023-05-02T02:10:21;97191.19;;;10.36;83.64
72677;BME280;60755;51.374;10.662;2023-05-02T02:12:53;97193.34;;;10.39;83.82
72677;BME280;60755;51.374;10.662;2023-05-02T02:15:27;97192.22;;;10.35;83.57
72677;BME280;60755;51.374;10.662;2023-05-02T02:17:58;97194.19;;;10.28;84.33
72677;BME280;60755;51.374;10.662;2023-05-02T02:20:28;97189.84;;;10.22;84.86
72677;BME280;60755;51.374;10.662;2023-05-02T02:22:58;97190.75;;;10.16;84.91
72677;BME280;60755;51.374;10.662;2023-05-02T02:25:26;97200.22;;;10.17;84.81
72677;BME280;60755;51.374;10.662;2023-05-02T02:27:53;97200.47;;;10.15;84.98
72677;BME280;60755;51.374;10.662;2023-05-02T02:30:20;97198.75;;;10.09;85.79
72677;BME280;60755;51.374;10.662;2023-05-02T02:32:47;97211.31;;;10.07;84.95
72677;BME280;60755;51.374;10.662;2023-05-02T02:35:14;97210.22;;;10.03;85.85
72677;BME280;60755;51.374;10.662;2023-05-02T02:37:46;97204.59;;;9.99;85.10
72677;BME280;60755;51.374;10.662;2023-05-02T02:40:20;97205.88;;;9.97;85.92
72677;BME280;60755;51.374;10.662;2023-05-02T02:42:53;97211.00;;;9.92;85.28
72677;BME280;60755;51.374;10.662;2023-05-02T02:45:28;97215.94;;;9.88;86.50
72677;BME280;60755;51.374;10.662;2023-05-02T02:48:04;97210.81;;;9.81;86.81
72677;BME280;60755;51.374;10.662;2023-05-02T02:50:37;97209.88;;;9.76;85.82
72677;BME280;60755;51.374;10.662;2023-05-02T02:53:16;97217.44;;;9.72;87.27
72677;BME280;60755;51.374;10.662;2023-05-02T02:55:46;97224.28;;;9.73;87.16
72677;BME280;60755;51.374;10.662;2023-05-02T02:58:20;97227.13;;;9.72;85.76
72677;BME280;60755;51.374;10.662;2023-05-02T03:00:53;97230.56;;;9.72;85.67
72677;BME280;60755;51.374;10.662;2023-05-02T03:03:21;97231.34;;;9.73;86.96
72677;BME280;60755;51.374;10.662;2023-05-02T03:05:54;97236.47;;;9.68;87.16
72677;BME280;60755;51.374;10.662;2023-05-02T03:08:23;97234.88;;;9.67;86.81
72677;BME280;60755;51.374;10.662;2023-05-02T03:10:50;97247.44;;;9.65;86.63
72677;BME280;60755;51.374;10.662;2023-05-02T03:13:17;97238.53;;;9.66;86.27
72677;BME280;60755;51.374;10.662;2023-05-02T03:16:11;97241.38;;;9.64;87.12
72677;BME280;60755;51.374;10.662;2023-05-02T03:18:45;97251.09;;;9.64;86.67
72677;BME280;60755;51.374;10.662;2023-05-02T03:21:12;97245.84;;;9.64;87.89
72677;BME280;60755;51.374;10.662;2023-05-02T03:23:41;97259.53;;;9.66;86.18
72677;BME280;60755;51.374;10.662;2023-05-02T03:26:09;97261.91;;;9.67;86.96
72677;BME280;60755;51.374;10.662;2023-05-02T03:28:36;97261.91;;;9.67;86.17
72677;BME280;60755;51.374;10.662;2023-05-02T03:31:04;97265.56;;;9.66;87.37
72677;BME280;60755;51.374;10.662;2023-05-02T03:33:36;97264.53;;;9.67;86.18
72677;BME280;60755;51.374;10.662;2023-05-02T03:36:03;97275.41;;;9.71;85.46
72677;BME280;60755;51.374;10.662;2023-05-02T03:38:30;97265.47;;;9.73;85.85
72677;BME280;60755;51.374;10.662;2023-05-02T03:41:03;97274.69;;;9.75;86.31
72677;BME280;60755;51.374;10.662;2023-05-02T03:43:31;97268.19;;;9.78;85.25
72677;BME280;60755;51.374;10.662;2023-05-02T03:46:03;97274.03;;;9.80;86.41
72677;BME280;60755;51.374;10.662;2023-05-02T03:48:31;97278.25;;;9.81;87.07
72677;BME280;60755;51.374;10.662;2023-05-02T03:50:57;97280.63;;;9.82;87.60
72677;BME280;60755;51.374;10.662;2023-05-02T03:53:25;97291.94;;;9.83;87.57
72677;BME280;60755;51.374;10.662;2023-05-02T03:55:56;97292.72;;;9.84;88.12
72677;BME280;60755;51.374;10.662;2023-05-02T03:58:35;97295.34;;;9.84;87.06
72677;BME280;60755;51.374;10.662;2023-05-02T04:01:02;97290.34;;;9.82;88.67
72677;BME280;60755;51.374;10.662;2023-05-02T04:03:29;97296.16;;;9.84;87.87
72677;BME280;60755;51.374;10.662;2023-05-02T04:06:00;97299.34;;;9.86;88.26
72677;BME280;60755;51.374;10.662;2023-05-02T04:08:27;97298.34;;;9.87;87.61
72677;BME280;60755;51.374;10.662;2023-05-02T04:10:54;97310.44;;;9.88;88.26
72677;BME280;60755;51.374;10.662;2023-05-02T04:13:21;97308.38;;;9.90;87.52
72677;BME280;60755;51.374;10.662;2023-05-02T04:15:50;97309.41;;;9.89;88.89
72677;BME280;60755;51.374;10.662;2023-05-02T04:18:20;97315.44;;;9.90;88.75
72677;BME280;60755;51.374;10.662;2023-05-02T04:20:48;97322.97;;;9.86;87.96
72677;BME280;60755;51.374;10.662;2023-05-02T04:23:17;97316.91;;;9.86;87.80
72677;BME280;60755;51.374;10.662;2023-05-02T04:25:53;97327.78;;;9.89;87.65
72677;BME280;60755;51.374;10.662;2023-05-02T04:28:25;97334.63;;;9.90;87.56
72677;BME280;60755;51.374;10.662;2023-05-02T04:30:55;97339.88;;;9.90;87.69
72677;BME280;60755;51.374;10.662;2023-05-02T04:33:23;97342.72;;;9.89;88.44
72677;BME280;60755;51.374;10.662;2023-05-02T04:35:51;97339.88;;;9.90;88.51
72677;BME280;60755;51.374;10.662;2023-05-02T04:38:21;97343.06;;;9.92;89.02
72677;BME280;60755;51.374;10.662;2023-05-02T04:40:49;97344.66;;;9.93;87.49
72677;BME280;60755;51.374;10.662;2023-05-02T04:43:21;97341.59;;;9.96;88.21
72677;BME280;60755;51.374;10.662;2023-05-02T04:45:55;97347.97;;;9.89;88.90
72677;BME280;60755;51.374;10.662;2023-05-02T04:48:27;97354.81;;;9.90;87.85
72677;BME280;60755;51.374;10.662;2023-05-02T04:50:53;97355.63;;;9.90;88.89
72677;BME280;60755;51.374;10.662;2023-05-02T04:53:21;97361.44;;;9.92;87.68
72677;BME280;60755;51.374;10.662;2023-05-02T04:55:49;97355.16;;;9.93;88.34
72677;BME280;60755;51.374;10.662;2023-05-02T04:58:16;97362.00;;;9.94;87.05
72677;BME280;60755;51.374;10.662;2023-05-02T05:00:47;97358.47;;;10.00;88.07
72677;BME280;60755;51.374;10.662;2023-05-02T05:03:16;97381.28;;;10.00;87.91
72677;BME280;60755;51.374;10.662;2023-05-02T05:05:43;97382.00;;;10.07;87.98
72677;BME280;60755;51.374;10.662;2023-05-02T05:08:13;97385.41;;;10.07;87.25
72677;BME280;60755;51.374;10.662;2023-05-02T05:10:40;97389.63;;;10.08;88.43
72677;BME280;60755;51.374;10.662;2023-05-02T05:13:08;97390.91;;;10.06;88.30
72677;BME280;60755;51.374;10.662;2023-05-02T05:15:37;97393.28;;;10.07;87.36
72677;BME280;60755;51.374;10.662;2023-05-02T05:18:05;97398.31;;;10.09;88.59
72677;BME280;60755;51.374;10.662;2023-05-02T05:20:33;97394.88;;;10.08;87.66
72677;BME280;60755;51.374;10.662;2023-05-02T05:23:02;97404.34;;;9.98;88.09
72677;BME280;60755;51.374;10.662;2023-05-02T05:25:29;97401.97;;;9.96;88.35
72677;BME280;60755;51.374;10.662;2023-05-02T05:27:58;97408.56;;;9.99;89.21
72677;BME280;60755;51.374;10.662;2023-05-02T05:30:25;97409.16;;;10.01;88.25
72677;BME280;60755;51.374;10.662;2023-05-02T05:32:55;97409.38;;;9.99;88.21
72677;BME280;60755;51.374;10.662;2023-05-02T05:35:22;97410.97;;;10.00;89.13
72677;BME280;60755;51.374;10.662;2023-05-02T05:37:51;97411.00;;;10.12;88.58
72677;BME280;60755;51.374;10.662;2023-05-02T05:40:19;97416.78;;;10.96;86.60
72677;BME280;60755;51.374;10.662;2023-05-02T05:42:50;97418.09;;;13.07;76.82
72677;BME280;60755;51.374;10.662;2023-05-02T05:45:23;97432.97;;;13.35;73.51
72677;BME280;60755;51.374;10.662;2023-05-02T05:47:53;97428.09;;;12.44;76.45
72677;BME280;60755;51.374;10.662;2023-05-02T05:50:20;97434.09;;;11.77;80.11
72677;BME280;60755;51.374;10.662;2023-05-02T05:52:47;97438.34;;;11.50;81.73
72677;BME280;60755;51.374;10.662;2023-05-02T05:55:16;97438.84;;;11.47;82.65
72677;BME280;60755;51.374;10.662;2023-05-02T05:57:43;97447.75;;;11.46;82.30
72677;BME280;60755;51.374;10.662;2023-05-02T06:00:11;97452.75;;;11.19;83.71
72677;BME280;60755;51.374;10.662;2023-05-02T06:02:48;97454.16;;;10.98;84.35
72677;BME280;60755;51.374;10.662;2023-05-02T06:05:25;97458.31;;;10.82;85.09
72677;BME280;60755;51.374;10.662;2023-05-02T06:07:52;97464.25;;;10.78;86.07
72677;BME280;60755;51.374;10.662;2023-05-02T06:10:20;97470.44;;;10.72;86.66
72677;BME280;60755;51.374;10.662;2023-05-02T06:12:47;97464.41;;;10.59;87.00
72677;BME280;60755;51.374;10.662;2023-05-02T06:15:16;97469.28;;;10.56;86.90
72677;BME280;60755;51.374;10.662;2023-05-02T06:17:43;97471.47;;;10.47;88.25
72677;BME280;60755;51.374;10.662;2023-05-02T06:20:11;97469.88;;;10.46;88.80
72677;BME280;60755;51.374;10.662;2023-05-02T06:22:38;97478.78;;;10.45;87.98
72677;BME280;60755;51.374;10.662;2023-05-02T06:25:06;97475.00;;;10.41;89.26
72677;BME280;60755;51.374;10.662;2023-05-02T06:27:34;97480.16;;;10.36;88.56
72677;BME280;60755;51.374;10.662;2023-05-02T06:30:02;97487.56;;;10.39;88.54
72677;BME280;60755;51.374;10.662;2023-05-02T06:32:29;97488.59;;;10.61;88.06
72677;BME280;60755;51.374;10.662;2023-05-02T06:34:56;97497.63;;;10.65;87.56
72677;BME280;60755;51.374;10.662;2023-05-02T06:37:23;97499.00;;;11.03;86.34
72677;BME280;60755;51.374;10.662;2023-05-02T06:39:50;97500.94;;;10.96;86.09
72677;BME280;60755;51.374;10.662;2023-05-02T06:42:17;97494.81;;;11.31;84.80
72677;BME280;60755;51.374;10.662;2023-05-02T06:44:45;97505.75;;;11.91;82.61
72677;BME280;60755;51.374;10.662;2023-05-02T06:47:12;97497.16;;;11.96;82.25
72677;BME280;60755;51.374;10.662;2023-05-02T06:49:39;97508.84;;;11.88;82.12
72677;BME280;60755;51.374;10.662;2023-05-02T06:52:06;97515.78;;;11.94;82.02
72677;BME280;60755;51.374;10.662;2023-05-02T06:54:33;97515.97;;;11.88;82.58
72677;BME280;60755;51.374;10.662;2023-05-02T06:57:00;97513.84;;;12.35;80.80
72677;BME280;60755;51.374;10.662;2023-05-02T06:59:27;97516.13;;;12.43;80.05
72677;BME280;60755;51.374;10.662;2023-05-02T07:01:56;97513.22;;;12.11;80.17
72677;BME280;60755;51.374;10.662;2023-05-02T07:04:23;97519.38;;;12.33;80.38
72677;BME280;60755;51.374;10.662;2023-05-02T07:06:49;97531.56;;;12.06;80.76
72677;BME280;60755;51.374;10.662;2023-05-02T07:09:16;97528.59;;;12.02;81.83
72677;BME280;60755;51.374;10.662;2023-05-02T07:11:43;97528.47;;;11.81;82.66
72677;BME280;60755;51.374;10.662;2023-05-02T07:14:10;97530.72;;;11.89;81.69
72677;BME280;60755;51.374;10.662;2023-05-02T07:16:37;97540.72;;;12.49;80.37
72677;BME280;60755;51.374;10.662;2023-05-02T07:19:05;97546.34;;;12.24;79.71
72677;BME280;60755;51.374;10.662;2023-05-02T07:21:33;97549.06;;;12.12;80.98
72677;BME280;60755;51.374;10.662;2023-05-02T07:24:00;97552.03;;;11.87;81.46
72677;BME280;60755;51.374;10.662;2023-05-02T07:26:27;97548.47;;;11.70;82.50
72677;BME280;60755;51.374;10.662;2023-05-02T07:28:54;97553.31;;;11.61;82.08
72677;BME280;60755;51.374;10.662;2023-05-02T07:31:21;97556.31;;;11.65;81.72
72677;BME280;60755;51.374;10.662;2023-05-02T07:33:48;97553.38;;;11.49;82.01
72677;BME280;60755;51.374;10.662;2023-05-02T07:36:16;97555.13;;;11.72;80.98
72677;BME280;60755;51.374;10.662;2023-05-02T07:38:43;97556.72;;;11.73;80.83
72677;BME280;60755;51.374;10.662;2023-05-02T07:41:12;97560.44;;;12.01;79.91
72677;BME280;60755;51.374;10.662;2023-05-02T07:43:39;97553.88;;;12.49;78.61
72677;BME280;60755;51.374;10.662;2023-05-02T07:46:06;97561.38;;;12.23;78.24
72677;BME280;60755;51.374;10.662;2023-05-02T07:48:33;97560.28;;;12.53;78.45
72677;BME280;60755;51.374;10.662;2023-05-02T07:51:08;97569.28;;;13.41;75.39
72677;BME280;60755;51.374;10.662;2023-05-02T07:53:36;97570.28;;;13.57;73.61
72677;BME280;60755;51.374;10.662;2023-05-02T07:56:03;97566.66;;;12.91;75.29
72677;BME280;60755;51.374;10.662;2023-05-02T07:58:31;97567.88;;;13.00;74.61
72677;BME280;60755;51.374;10.662;2023-05-02T08:00:58;97568.81;;;14.15;71.68
72677;BME280;60755;51.374;10.662;2023-05-02T08:03:25;97558.72;;;14.66;69.71
72677;BME280;60755;51.374;10.662;2023-05-02T08:05:52;97576.47;;;14.16;70.21
72677;BME280;60755;51.374;10.662;2023-05-02T08:08:19;97569.38;;;13.95;70.65
72677;BME280;60755;51.374;10.662;2023-05-02T08:10:48;97577.00;;;13.69;72.54
72677;BME280;60755;51.374;10.662;2023-05-02T08:13:15;97585.41;;;13.44;73.06
72677;BME280;60755;51.374;10.662;2023-05-02T08:15:42;97581.06;;;13.55;73.51
72677;BME280;60755;51.374;10.662;2023-05-02T08:18:10;97588.53;;;14.34;69.91
72677;BME280;60755;51.374;10.662;2023-05-02T08:20:37;97590.97;;;13.65;69.65
72677;BME280;60755;51.374;10.662;2023-05-02T08:23:04;97590.13;;;14.35;68.94
72677;BME280;60755;51.374;10.662;2023-05-02T08:25:31;97590.47;;;14.12;68.90
72677;BME280;60755;51.374;10.662;2023-05-02T08:27:59;97593.56;;;14.09;68.96
72677;BME280;60755;51.374;10.662;2023-05-02T08:30:26;97602.34;;;14.36;68.93
72677;BME280;60755;51.374;10.662;2023-05-02T08:32:53;97601.75;;;14.56;67.98
72677;BME280;60755;51.374;10.662;2023-05-02T08:35:20;97598.44;;;14.17;68.90
72677;BME280;60755;51.374;10.662;2023-05-02T08:37:47;97597.59;;;13.89;69.20
72677;BME280;60755;51.374;10.662;2023-05-02T08:40:15;97600.50;;;13.88;68.92
72677;BME280;60755;51.374;10.662;2023-05-02T08:42:43;97604.94;;;14.09;69.92
72677;BME280;60755;51.374;10.662;2023-05-02T08:45:12;97608.16;;;14.60;68.75
72677;BME280;60755;51.374;10.662;2023-05-02T08:47:40;97606.50;;;14.32;69.86
72677;BME280;60755;51.374;10.662;2023-05-02T08:50:08;97610.69;;;13.57;72.29
72677;BME280;60755;51.374;10.662;2023-05-02T08:52:36;97616.13;;;13.51;73.32
72677;BME280;60755;51.374;10.662;2023-05-02T08:55:05;97625.25;;;13.43;73.38
72677;BME280;60755;51.374;10.662;2023-05-02T08:57:32;97636.66;;;12.48;76.88
72677;BME280;60755;51.374;10.662;2023-05-02T08:59:59;97646.59;;;12.29;78.31
72677;BME280;60755;51.374;10.662;2023-05-02T09:02:42;97659.09;;;11.23;88.34
72677;BME280;60755;51.374;10.662;2023-05-02T09:05:11;97668.09;;;10.92;91.29
72677;BME280;60755;51.374;10.662;2023-05-02T09:07:44;97665.94;;;11.01;93.06
72677;BME280;60755;51.374;10.662;2023-05-02T09:10:12;97669.63;;;10.70;90.33
72677;BME280;60755;51.374;10.662;2023-05-02T09:12:39;97672.88;;;10.95;91.74
72677;BME280;60755;51.374;10.662;2023-05-02T09:15:10;97678.75;;;11.20;93.35
72677;BME280;60755;51.374;10.662;2023-05-02T09:17:40;97682.44;;;11.90;91.83
72677;BME280;60755;51.374;10.662;2023-05-02T09:20:09;97681.41;;;11.79;90.22
72677;BME280;60755;51.374;10.662;2023-05-02T09:22:36;97687.13;;;11.88;88.77
72677;BME280;60755;51.374;10.662;2023-05-02T09:25:04;97690.66;;;11.93;87.29
72677;BME280;60755;51.374;10.662;2023-05-02T09:27:50;97697.41;;;11.77;87.13
72677;BME280;60755;51.374;10.662;2023-05-02T09:30:19;97698.63;;;12.10;87.53
72677;BME280;60755;51.374;10.662;2023-05-02T09:32:48;97703.41;;;12.25;86.80
72677;BME280;60755;51.374;10.662;2023-05-02T09:35:17;97701.06;;;12.52;87.75
72677;BME280;60755;51.374;10.662;2023-05-02T09:37:52;97703.41;;;12.25;86.65
72677;BME280;60755;51.374;10.662;2023-05-02T09:40:19;97700.41;;;11.93;85.65
72677;BME280;60755;51.374;10.662;2023-05-02T09:42:46;97695.91;;;12.05;86.70
72677;BME280;60755;51.374;10.662;2023-05-02T09:45:20;97697.53;;;12.35;86.61
72677;BME280;60755;51.374;10.662;2023-05-02T09:47:49;97707.41;;;11.87;88.07
72677;BME280;60755;51.374;10.662;2023-05-02T09:50:34;97705.56;;;11.88;90.54
72677;BME280;60755;51.374;10.662;2023-05-02T09:53:03;97707.13;;;12.00;88.26
72677;BME280;60755;51.374;10.662;2023-05-02T09:55:30;97721.91;;;11.66;89.07
72677;BME280;60755;51.374;10.662;2023-05-02T09:57:58;97714.81;;;11.32;90.97
72677;BME280;60755;51.374;10.662;2023-05-02T10:00:41;97731.06;;;10.99;91.76
72677;BME280;60755;51.374;10.662;2023-05-02T10:03:14;97736.31;;;10.87;94.09
72677;BME280;60755;51.374;10.662;2023-05-02T10:05:43;97737.75;;;10.71;93.18
72677;BME280;60755;51.374;10.662;2023-05-02T10:08:11;97736.06;;;10.77;92.59
72677;BME280;60755;51.374;10.662;2023-05-02T10:10:40;97736.25;;;11.05;92.70
72677;BME280;60755;51.374;10.662;2023-05-02T10:13:09;97747.38;;;11.19;89.87
72677;BME280;60755;51.374;10.662;2023-05-02T10:15:42;97741.38;;;11.65;90.89
72677;BME280;60755;51.374;10.662;2023-05-02T10:18:13;97734.25;;;12.24;88.17
72677;BME280;60755;51.374;10.662;2023-05-02T10:20:45;97737.59;;;12.60;86.93
72677;BME280;60755;51.374;10.662;2023-05-02T10:23:14;97742.63;;;13.07;84.18
72677;BME280;60755;51.374;10.662;2023-05-02T10:25:42;97738.50;;;13.39;81.70
72677;BME280;60755;51.374;10.662;2023-05-02T10:28:09;97750.53;;;12.62;79.57
72677;BME280;60755;51.374;10.662;2023-05-02T10:30:38;97760.28;;;11.86;82.30
72677;BME280;60755;51.374;10.662;2023-05-02T10:33:05;97758.81;;;12.53;82.96
72677;BME280;60755;51.374;10.662;2023-05-02T10:35:35;97783.97;;;12.09;81.84
72677;BME280;60755;51.374;10.662;2023-05-02T10:38:04;97765.47;;;11.81;80.76
72677;BME280;60755;51.374;10.662;2023-05-02T10:40:31;97759.81;;;11.65;81.50
72677;BME280;60755;51.374;10.662;2023-05-02T10:42:59;97761.19;;;11.56;84.16
72677;BME280;60755;51.374;10.662;2023-05-02T10:45:30;97767.97;;;11.99;82.14
72677;BME280;60755;51.374;10.662;2023-05-02T10:48:15;97765.53;;;12.21;79.77
72677;BME280;60755;51.374;10.662;2023-05-02T10:50:45;97773.19;;;11.75;81.75
72677;BME280;60755;51.374;10.662;2023-05-02T10:53:22;97775.56;;;11.42;82.02
72677;BME280;60755;51.374;10.662;2023-05-02T10:56:07;97785.31;;;11.41;81.01
72677;BME280;60755;51.374;10.662;2023-05-02T10:58:34;97773.13;;;11.29;81.46
72677;BME280;60755;51.374;10.662;2023-05-02T11:01:34;97768.84;;;11.58;80.82
72677;BME280;60755;51.374;10.662;2023-05-02T11:04:03;97781.03;;;11.29;81.56
72677;BME280;60755;51.374;10.662;2023-05-02T11:06:34;97776.56;;;10.87;83.74
72677;BME280;60755;51.374;10.662;2023-05-02T11:09:31;97786.44;;;10.74;82.99
72677;BME280;60755;51.374;10.662;2023-05-02T11:11:59;97777.81;;;10.85;83.09
72677;BME280;60755;51.374;10.662;2023-05-02T11:14:44;97779.56;;;11.33;82.29
72677;BME280;60755;51.374;10.662;2023-05-02T11:17:13;97775.88;;;11.99;79.19
72677;BME280;60755;51.374;10.662;2023-05-02T11:22:55;97772.31;;;11.82;80.81
72677;BME280;60755;51.374;10.662;2023-05-02T11:25:33;97783.56;;;11.89;80.24
72677;BME280;60755;51.374;10.662;2023-05-02T11:28:01;97785.03;;;11.96;78.56
72677;BME280;60755;51.374;10.662;2023-05-02T11:30:41;97785.06;;;11.43;80.10
72677;BME280;60755;51.374;10.662;2023-05-02T11:33:18;97789.13;;;12.16;78.90
72677;BME280;60755;51.374;10.662;2023-05-02T11:35:46;97794.53;;;12.09;78.27
72677;BME280;60755;51.374;10.662;2023-05-02T11:38:17;97793.13;;;12.18;77.36
72677;BME280;60755;51.374;10.662;2023-05-02T11:40:52;97796.72;;;12.12;76.80
72677;BME280;60755;51.374;10.662;2023-05-02T11:43:20;97801.38;;;11.87;78.29
72677;BME280;60755;51.374;10.662;2023-05-02T11:45:47;97805.13;;;11.67;77.38
72677;BME280;60755;51.374;10.662;2023-05-02T11:48:16;97797.28;;;11.91;76.42
72677;BME280;60755;51.374;10.662;2023-05-02T11:50:45;97795.69;;;11.90;75.37
72677;BME280;60755;51.374;10.662;2023-05-02T11:53:14;97795.00;;;11.83;79.23
72677;BME280;60755;51.374;10.662;2023-05-02T11:55:48;97794.41;;;11.15;79.59
72677;BME280;60755;51.374;10.662;2023-05-02T11:58:17;97803.09;;;11.28;79.45
72677;BME280;60755;51.374;10.662;2023-05-02T12:00:45;97816.69;;;10.83;81.25
72677;BME280;60755;51.374;10.662;2023-05-02T12:03:20;97813.88;;;11.38;80.27
72677;BME280;60755;51.374;10.662;2023-05-02T12:05:48;97822.31;;;11.16;78.62
72677;BME280;60755;51.374;10.662;2023-05-02T12:08:20;97821.25;;;11.59;77.18
72677;BME280;60755;51.374;10.662;2023-05-02T12:10:50;97821.97;;;11.25;76.58
72677;BME280;60755;51.374;10.662;2023-05-02T12:13:20;97823.75;;;11.54;75.19
72677;BME280;60755;51.374;10.662;2023-05-02T12:15:48;97819.22;;;12.55;71.68
72677;BME280;60755;51.374;10.662;2023-05-02T12:18:16;97830.31;;;13.09;70.31
72677;BME280;60755;51.374;10.662;2023-05-02T12:20:44;97826.28;;;12.66;71.15
72677;BME280;60755;51.374;10.662;2023-05-02T12:23:12;97830.31;;;13.09;69.05
72677;BME280;60755;51.374;10.662;2023-05-02T12:25:40;97835.75;;;12.91;70.43
72677;BME280;60755;51.374;10.662;2023-05-02T12:28:09;97840.19;;;12.62;70.90
72677;BME280;60755;51.374;10.662;2023-05-02T12:30:37;97835.97;;;12.49;71.70
72677;BME280;60755;51.374;10.662;2023-05-02T12:33:05;97840.00;;;12.28;72.60
72677;BME280;60755;51.374;10.662;2023-05-02T12:35:33;97834.41;;;11.47;72.80
72677;BME280;60755;51.374;10.662;2023-05-02T12:38:11;97825.91;;;11.99;71.60
72677;BME280;60755;51.374;10.662;2023-05-02T12:40:46;97841.59;;;11.94;71.22
72677;BME280;60755;51.374;10.662;2023-05-02T12:43:14;97837.13;;;12.06;70.59
72677;BME280;60755;51.374;10.662;2023-05-02T12:45:42;97845.97;;;11.88;72.43
72677;BME280;60755;51.374;10.662;2023-05-02T12:48:20;97847.59;;;11.71;71.10
72677;BME280;60755;51.374;10.662;2023-05-02T12:50:48;97850.13;;;11.77;71.99
72677;BME280;60755;51.374;10.662;2023-05-02T12:53:15;97849.47;;;12.64;70.77
72677;BME280;60755;51.374;10.662;2023-05-02T12:55:42;97858.13;;;12.88;67.95
72677;BME280;60755;51.374;10.662;2023-05-02T12:58:10;97852.47;;;12.32;70.65
72677;BME280;60755;51.374;10.662;2023-05-02T13:00:41;97858.22;;;12.53;70.89
72677;BME280;60755;51.374;10.662;2023-05-02T13:03:09;97860.13;;;12.57;69.26
72677;BME280;60755;51.374;10.662;2023-05-02T13:05:36;97861.97;;;12.69;67.26
72677;BME280;60755;51.374;10.662;2023-05-02T13:08:04;97866.97;;;11.76;69.99